sensor_id;sensor_type;location;lat;lon;timestamp;pressure;altitude;pressure_sealevel;temperature;humidity
56825;BME280;42705;50.326;18.772;2022-11-20T00:02:55;98176.60;;;-2.71;58.98
56825;BME280;42705;50.326;18.772;2022-11-20T00:08:16;98176.69;;;-2.73;59.19
56825;BME280;42705;50.326;18.772;2022-11-20T00:13:37;98165.06;;;-2.71;59.35
56825;BME280;42705;50.326;18.772;2022-11-20T00:18:58;98159.94;;;-2.71;59.49
56825;BME280;42705;50.326;18.772;2022-11-20T00:24:20;98164.63;;;-2.71;59.66
56825;BME280;42705;50.326;18.772;2022-11-20T00:29:42;98168.52;;;-2.72;59.75
56825;BME280;42705;50.326;18.772;2022-11-20T00:35:03;98170.97;;;-2.80;59.82
56825;BME280;42705;50.326;18.772;2022-11-20T00:40:25;98168.48;;;-2.81;60.08
56825;BME280;42705;50.326;18.772;2022-11-20T00:45:46;98165.91;;;-2.81;60.16
56825;BME280;42705;50.326;18.772;2022-11-20T00:51:08;98165.70;;;-2.87;60.18
56825;BME280;42705;50.326;18.772;2022-11-20T00:56:30;98158.91;;;-2.88;60.29
56825;BME280;42705;50.326;18.772;2022-11-20T01:01:51;98154.69;;;-2.89;60.29
56825;BME280;42705;50.326;18.772;2022-11-20T01:07:12;98148.66;;;-2.88;60.31
56825;BME280;42705;50.326;18.772;2022-11-20T01:12:33;98150.06;;;-2.91;60.47
56825;BME280;42705;50.326;18.772;2022-11-20T01:17:54;98136.53;;;-2.95;60.55
56825;BME280;42705;50.326;18.772;2022-11-20T01:23:15;98135.38;;;-2.98;60.64
56825;BME280;42705;50.326;18.772;2022-11-20T01:28:36;98135.76;;;-3.07;60.72
56825;BME280;42705;50.326;18.772;2022-11-20T01:34:01;98135.76;;;-3.07;60.72
56825;BME280;42705;50.326;18.772;2022-11-20T01:39:25;98139.60;;;-3.07;60.83
56825;BME280;42705;50.326;18.772;2022-11-20T01:50:19;98109.79;;;-3.20;60.95
56825;BME280;42705;50.326;18.772;2022-11-20T01:55:49;98108.97;;;-3.21;61.10
56825;BME280;42705;50.326;18.772;2022-11-20T02:01:12;98112.14;;;-3.26;61.21
56825;BME280;42705;50.326;18.772;2022-11-20T02:07:01;98110.05;;;-3.26;61.54
56825;BME280;42705;50.326;18.772;2022-11-20T02:12:23;98111.20;;;-3.23;61.74
56825;BME280;42705;50.326;18.772;2022-11-20T02:17:46;98112.81;;;-3.21;61.73
56825;BME280;42705;50.326;18.772;2022-11-20T02:40:46;98140.28;;;-3.24;61.63
56825;BME280;42705;50.326;18.772;2022-11-20T02:46:08;98143.98;;;-3.31;61.58
56825;BME280;42705;50.326;18.772;2022-11-20T02:51:31;98145.12;;;-3.39;61.59
56825;BME280;42705;50.326;18.772;2022-11-20T02:56:52;98140.90;;;-3.40;61.58
56825;BME280;42705;50.326;18.772;2022-11-20T03:02:14;98144.78;;;-3.41;61.54
56825;BME280;42705;50.326;18.772;2022-11-20T03:07:35;98142.73;;;-3.43;61.64
56825;BME280;42705;50.326;18.772;2022-11-20T03:12:56;98146.50;;;-3.42;61.64
56825;BME280;42705;50.326;18.772;2022-11-20T03:18:17;98143.13;;;-3.42;61.69
56825;BME280;42705;50.326;18.772;2022-11-20T03:23:39;98138.00;;;-3.42;61.74
56825;BME280;42705;50.326;18.772;2022-11-20T03:29:03;98141.28;;;-3.39;61.80
56825;BME280;42705;50.326;18.772;2022-11-20T03:34:25;98135.27;;;-3.38;61.82
56825;BME280;42705;50.326;18.772;2022-11-20T03:39:46;98134.25;;;-3.33;61.91
56825;BME280;42705;50.326;18.772;2022-11-20T03:45:08;98140.27;;;-3.35;61.82
56825;BME280;42705;50.326;18.772;2022-11-20T03:50:29;98133.59;;;-3.39;61.87
56825;BME280;42705;50.326;18.772;2022-11-20T03:55:51;98137.63;;;-3.55;61.88
56825;BME280;42705;50.326;18.772;2022-11-20T04:01:21;98130.33;;;-3.76;61.76
56825;BME280;42705;50.326;18.772;2022-11-20T04:06:44;98138.52;;;-3.90;62.06
56825;BME280;42705;50.326;18.772;2022-11-20T04:12:05;98141.70;;;-4.08;62.27
56825;BME280;42705;50.326;18.772;2022-11-20T04:17:26;98141.14;;;-4.28;62.60
56825;BME280;42705;50.326;18.772;2022-11-20T04:22:47;98145.72;;;-4.24;63.08
56825;BME280;42705;50.326;18.772;2022-11-20T04:28:08;98137.08;;;-4.22;63.38
56825;BME280;42705;50.326;18.772;2022-11-20T04:33:29;98130.09;;;-4.16;63.43
56825;BME280;42705;50.326;18.772;2022-11-20T04:38:51;98124.02;;;-4.02;63.79
56825;BME280;42705;50.326;18.772;2022-11-20T04:44:13;98106.67;;;-3.83;63.77
56825;BME280;42705;50.326;18.772;2022-11-20T04:49:34;98101.16;;;-3.72;63.63
56825;BME280;42705;50.326;18.772;2022-11-20T04:54:55;98101.38;;;-3.67;63.52
56825;BME280;42705;50.326;18.772;2022-11-20T05:00:17;98097.67;;;-3.59;63.46
56825;BME280;42705;50.326;18.772;2022-11-20T05:05:38;98090.59;;;-3.53;63.37
56825;BME280;42705;50.326;18.772;2022-11-20T05:11:08;98081.94;;;-3.50;63.32
56825;BME280;42705;50.326;18.772;2022-11-20T05:16:28;98071.05;;;-3.45;63.27
56825;BME280;42705;50.326;18.772;2022-11-20T05:21:49;98067.50;;;-3.41;63.20
56825;BME280;42705;50.326;18.772;2022-11-20T05:27:10;98067.42;;;-3.39;63.09
56825;BME280;42705;50.326;18.772;2022-11-20T05:32:31;98073.02;;;-3.40;63.06
56825;BME280;42705;50.326;18.772;2022-11-20T05:37:52;98074.77;;;-3.42;63.07
56825;BME280;42705;50.326;18.772;2022-11-20T05:43:13;98073.02;;;-3.40;63.08
56825;BME280;42705;50.326;18.772;2022-11-20T05:48:35;98071.66;;;-3.38;63.02
56825;BME280;42705;50.326;18.772;2022-11-20T05:53:57;98072.03;;;-3.37;63.05
56825;BME280;42705;50.326;18.772;2022-11-20T05:59:19;98074.04;;;-3.33;63.07
56825;BME280;42705;50.326;18.772;2022-11-20T06:04:40;98067.13;;;-3.31;63.01
56825;BME280;42705;50.326;18.772;2022-11-20T06:10:01;98058.45;;;-3.29;62.90
56825;BME280;42705;50.326;18.772;2022-11-20T06:15:23;98058.45;;;-3.29;62.78
56825;BME280;42705;50.326;18.772;2022-11-20T06:20:44;98067.05;;;-3.30;62.63
56825;BME280;42705;50.326;18.772;2022-11-20T06:26:08;98066.73;;;-3.32;62.56
56825;BME280;42705;50.326;18.772;2022-11-20T06:31:31;98069.30;;;-3.32;62.40
56825;BME280;42705;50.326;18.772;2022-11-20T06:36:54;98071.52;;;-3.35;62.45
56825;BME280;42705;50.326;18.772;2022-11-20T06:42:15;98071.48;;;-3.33;62.52
56825;BME280;42705;50.326;18.772;2022-11-20T06:47:36;98055.98;;;-3.30;62.74
56825;BME280;42705;50.326;18.772;2022-11-20T06:53:02;98059.05;;;-3.22;62.75
56825;BME280;42705;50.326;18.772;2022-11-20T06:58:26;98055.46;;;-3.18;62.75
56825;BME280;42705;50.326;18.772;2022-11-20T07:03:49;98057.72;;;-3.10;62.70
56825;BME280;42705;50.326;18.772;2022-11-20T07:09:11;98051.86;;;-3.03;62.66
56825;BME280;42705;50.326;18.772;2022-11-20T07:14:32;98050.78;;;-2.98;62.60
56825;BME280;42705;50.326;18.772;2022-11-20T07:19:53;98047.95;;;-2.92;62.67
56825;BME280;42705;50.326;18.772;2022-11-20T07:25:14;98037.89;;;-2.86;62.69
56825;BME280;42705;50.326;18.772;2022-11-20T07:30:36;98026.60;;;-2.82;62.73
56825;BME280;42705;50.326;18.772;2022-11-20T07:35:59;98030.94;;;-2.73;62.73
56825;BME280;42705;50.326;18.772;2022-11-20T07:41:20;98032.61;;;-2.62;62.81
56825;BME280;42705;50.326;18.772;2022-11-20T07:46:41;98028.78;;;-2.53;62.74
56825;BME280;42705;50.326;18.772;2022-11-20T07:52:02;98032.67;;;-2.44;62.77
56825;BME280;42705;50.326;18.772;2022-11-20T07:57:23;98022.89;;;-2.36;62.77
56825;BME280;42705;50.326;18.772;2022-11-20T08:02:44;98035.44;;;-2.30;62.81
56825;BME280;42705;50.326;18.772;2022-11-20T08:08:05;98038.39;;;-2.29;62.83
56825;BME280;42705;50.326;18.772;2022-11-20T08:13:27;98036.71;;;-2.39;62.82
56825;BME280;42705;50.326;18.772;2022-11-20T08:19:07;98043.66;;;-2.51;62.59
56825;BME280;42705;50.326;18.772;2022-11-20T08:24:29;98050.02;;;-2.50;63.10
56825;BME280;42705;50.326;18.772;2022-11-20T08:29:49;98054.91;;;-2.35;63.45
56825;BME280;42705;50.326;18.772;2022-11-20T08:35:10;98066.47;;;-2.15;63.54
56825;BME280;42705;50.326;18.772;2022-11-20T08:40:32;98062.27;;;-2.08;63.36
56825;BME280;42705;50.326;18.772;2022-11-20T08:45:56;98063.27;;;-1.93;63.53
56825;BME280;42705;50.326;18.772;2022-11-20T08:51:18;98065.03;;;-1.93;63.12
56825;BME280;42705;50.326;18.772;2022-11-20T08:56:39;98064.21;;;-1.85;63.14
56825;BME280;42705;50.326;18.772;2022-11-20T09:02:00;98064.91;;;-1.81;63.12
56825;BME280;42705;50.326;18.772;2022-11-20T09:07:22;98059.42;;;-1.65;63.28
56825;BME280;42705;50.326;18.772;2022-11-20T09:12:43;98062.07;;;-1.57;62.92
56825;BME280;42705;50.326;18.772;2022-11-20T09:18:05;98052.55;;;-1.55;62.91
56825;BME280;42705;50.326;18.772;2022-11-20T09:23:30;98055.98;;;-1.46;63.02
56825;BME280;42705;50.326;18.772;2022-11-20T09:28:54;98057.95;;;-1.34;62.83
56825;BME280;42705;50.326;18.772;2022-11-20T09:34:17;98046.83;;;-1.25;62.51
56825;BME280;42705;50.326;18.772;2022-11-20T09:39:38;98034.73;;;-1.06;62.67
56825;BME280;42705;50.326;18.772;2022-11-20T09:56:42;98026.92;;;-0.37;62.16
56825;BME280;42705;50.326;18.772;2022-11-20T10:08:23;98008.16;;;-0.07;62.08
56825;BME280;42705;50.326;18.772;2022-11-20T10:19:47;97992.62;;;0.18;61.83
56825;BME280;42705;50.326;18.772;2022-11-20T10:25:18;97989.72;;;0.24;61.62
56825;BME280;42705;50.326;18.772;2022-11-20T10:30:43;97984.23;;;0.38;61.48
56825;BME280;42705;50.326;18.772;2022-11-20T10:36:19;97983.09;;;0.58;61.43
56825;BME280;42705;50.326;18.772;2022-11-20T10:41:49;97968.55;;;0.71;61.41
56825;BME280;42705;50.326;18.772;2022-11-20T10:47:15;97957.43;;;0.71;61.61
56825;BME280;42705;50.326;18.772;2022-11-20T10:53:04;97955.41;;;0.83;61.64
56825;BME280;42705;50.326;18.772;2022-11-20T11:04:49;97952.47;;;1.11;61.35
56825;BME280;42705;50.326;18.772;2022-11-20T11:10:21;97950.81;;;1.18;61.36
56825;BME280;42705;50.326;18.772;2022-11-20T11:15:51;97945.27;;;1.38;61.38
56825;BME280;42705;50.326;18.772;2022-11-20T11:21:13;97947.47;;;1.44;61.09
56825;BME280;42705;50.326;18.772;2022-11-20T11:26:34;97945.39;;;1.71;61.09
56825;BME280;42705;50.326;18.772;2022-11-20T11:32:07;97948.00;;;1.92;60.92
56825;BME280;42705;50.326;18.772;2022-11-20T11:37:38;97944.70;;;2.02;60.37
56825;BME280;42705;50.326;18.772;2022-11-20T11:43:03;97935.02;;;2.26;60.54
56825;BME280;42705;50.326;18.772;2022-11-20T11:48:26;97911.73;;;2.59;60.20
56825;BME280;42705;50.326;18.772;2022-11-20T11:53:47;97921.09;;;3.25;59.32
56825;BME280;42705;50.326;18.772;2022-11-20T11:59:12;97915.47;;;4.23;59.01
56825;BME280;42705;50.326;18.772;2022-11-20T12:04:50;97906.55;;;4.33;57.83
56825;BME280;42705;50.326;18.772;2022-11-20T12:16:02;97900.27;;;6.11;55.36
56825;BME280;42705;50.326;18.772;2022-11-20T12:21:38;97890.06;;;6.92;54.16
56825;BME280;42705;50.326;18.772;2022-11-20T12:33:17;97870.97;;;6.30;53.92
56825;BME280;42705;50.326;18.772;2022-11-20T12:56:48;97840.02;;;8.28;50.27
56825;BME280;42705;50.326;18.772;2022-11-20T13:08:22;97825.09;;;8.82;49.93
56825;BME280;42705;50.326;18.772;2022-11-20T13:19:21;97820.76;;;8.87;49.80
56825;BME280;42705;50.326;18.772;2022-11-20T13:24:49;97819.97;;;8.62;49.26
56825;BME280;42705;50.326;18.772;2022-11-20T13:30:16;97816.14;;;7.24;49.93
56825;BME280;42705;50.326;18.772;2022-11-20T13:35:42;97816.60;;;6.27;51.08
56825;BME280;42705;50.326;18.772;2022-11-20T13:41:07;97816.23;;;5.12;51.54
56825;BME280;42705;50.326;18.772;2022-11-20T13:46:47;97825.52;;;4.12;52.60
56825;BME280;42705;50.326;18.772;2022-11-20T14:03:49;97806.00;;;2.55;55.60
56825;BME280;42705;50.326;18.772;2022-11-20T14:09:24;97813.88;;;2.27;56.31
56825;BME280;42705;50.326;18.772;2022-11-20T14:14:52;97808.28;;;2.08;57.01
56825;BME280;42705;50.326;18.772;2022-11-20T14:20:14;97808.63;;;1.83;57.44
56825;BME280;42705;50.326;18.772;2022-11-20T14:25:36;97798.95;;;1.59;58.07
56825;BME280;42705;50.326;18.772;2022-11-20T14:30:58;97799.68;;;1.41;58.36
56825;BME280;42705;50.326;18.772;2022-11-20T14:36:21;97804.63;;;1.24;58.77
56825;BME280;42705;50.326;18.772;2022-11-20T14:41:52;97806.07;;;1.00;59.33
56825;BME280;42705;50.326;18.772;2022-11-20T14:47:21;97795.31;;;0.86;59.85
56825;BME280;42705;50.326;18.772;2022-11-20T14:52:59;97805.11;;;0.74;60.45
56825;BME280;42705;50.326;18.772;2022-11-20T14:58:23;97780.63;;;0.67;60.92
56825;BME280;42705;50.326;18.772;2022-11-20T15:03:46;97784.20;;;0.71;61.12
56825;BME280;42705;50.326;18.772;2022-11-20T15:09:13;97776.94;;;0.71;61.43
56825;BME280;42705;50.326;18.772;2022-11-20T15:14:36;97775.84;;;0.68;61.70
56825;BME280;42705;50.326;18.772;2022-11-20T15:19:57;97771.14;;;0.60;62.13
56825;BME280;42705;50.326;18.772;2022-11-20T15:25:20;97769.85;;;0.60;62.47
56825;BME280;42705;50.326;18.772;2022-11-20T15:30:41;97766.17;;;0.57;62.74
56825;BME280;42705;50.326;18.772;2022-11-20T15:36:02;97767.66;;;0.54;62.89
56825;BME280;42705;50.326;18.772;2022-11-20T15:41:24;97765.71;;;0.50;63.63
56825;BME280;42705;50.326;18.772;2022-11-20T15:46:45;97769.31;;;0.55;63.70
56825;BME280;42705;50.326;18.772;2022-11-20T15:52:09;97765.08;;;0.54;63.79
56825;BME280;42705;50.326;18.772;2022-11-20T15:57:30;97762.77;;;0.49;64.18
56825;BME280;42705;50.326;18.772;2022-11-20T16:02:52;97754.95;;;0.51;64.46
56825;BME280;42705;50.326;18.772;2022-11-20T16:08:14;97760.84;;;0.53;64.58
56825;BME280;42705;50.326;18.772;2022-11-20T16:13:36;97767.66;;;0.54;64.82
56825;BME280;42705;50.326;18.772;2022-11-20T16:19:16;97762.69;;;0.51;65.10
56825;BME280;42705;50.326;18.772;2022-11-20T16:24:38;97762.69;;;0.51;65.10
56825;BME280;42705;50.326;18.772;2022-11-20T16:29:59;97771.60;;;0.52;65.11
56825;BME280;42705;50.326;18.772;2022-11-20T16:35:20;97769.22;;;0.42;65.32
56825;BME280;42705;50.326;18.772;2022-11-20T16:40:41;97766.65;;;0.42;65.42
56825;BME280;42705;50.326;18.772;2022-11-20T16:46:03;97756.23;;;0.36;65.55
56825;BME280;42705;50.326;18.772;2022-11-20T16:51:26;97756.80;;;0.34;65.81
56825;BME280;42705;50.326;18.772;2022-11-20T16:56:48;97758.38;;;0.30;65.94
56825;BME280;42705;50.326;18.772;2022-11-20T17:02:11;97777.52;;;0.25;65.99
56825;BME280;42705;50.326;18.772;2022-11-20T17:07:32;97780.47;;;0.19;66.04
56825;BME280;42705;50.326;18.772;2022-11-20T17:12:53;97779.15;;;0.12;66.25
56825;BME280;42705;50.326;18.772;2022-11-20T17:18:14;97774.73;;;0.07;66.42
56825;BME280;42705;50.326;18.772;2022-11-20T17:23:37;97766.20;;;0.06;66.65
56825;BME280;42705;50.326;18.772;2022-11-20T17:29:05;97757.63;;;0.13;66.94
56825;BME280;42705;50.326;18.772;2022-11-20T17:34:29;97756.91;;;0.25;67.00
56825;BME280;42705;50.326;18.772;2022-11-20T17:39:50;97746.49;;;0.27;66.96
56825;BME280;42705;50.326;18.772;2022-11-20T17:45:11;97737.20;;;0.17;67.03
56825;BME280;42705;50.326;18.772;2022-11-20T17:50:32;97736.56;;;0.13;67.23
56825;BME280;42705;50.326;18.772;2022-11-20T17:55:55;97723.69;;;0.13;67.42
56825;BME280;42705;50.326;18.772;2022-11-20T18:01:35;97704.00;;;0.12;67.57
56825;BME280;42705;50.326;18.772;2022-11-20T18:06:56;97714.75;;;0.12;67.71
56825;BME280;42705;50.326;18.772;2022-11-20T18:12:18;97722.67;;;0.09;67.73
56825;BME280;42705;50.326;18.772;2022-11-20T18:17:39;97717.41;;;-0.04;67.83
56825;BME280;42705;50.326;18.772;2022-11-20T18:23:03;97736.28;;;-0.18;68.01
56825;BME280;42705;50.326;18.772;2022-11-20T18:28:24;97734.03;;;-0.32;68.43
56825;BME280;42705;50.326;18.772;2022-11-20T18:33:45;97732.27;;;-0.38;68.73
56825;BME280;42705;50.326;18.772;2022-11-20T18:39:08;97732.19;;;-0.44;69.14
56825;BME280;42705;50.326;18.772;2022-11-20T18:44:32;97728.13;;;-0.48;69.42
56825;BME280;42705;50.326;18.772;2022-11-20T18:50:14;97728.13;;;-0.48;69.42
56825;BME280;42705;50.326;18.772;2022-11-20T18:55:35;97732.17;;;-0.51;69.64
56825;BME280;42705;50.326;18.772;2022-11-20T19:01:06;97733.90;;;-0.52;69.77
56825;BME280;42705;50.326;18.772;2022-11-20T19:06:27;97738.41;;;-0.55;69.85
56825;BME280;42705;50.326;18.772;2022-11-20T19:11:49;97728.81;;;-0.61;70.00
56825;BME280;42705;50.326;18.772;2022-11-20T19:17:12;97734.24;;;-0.65;70.08
56825;BME280;42705;50.326;18.772;2022-11-20T19:22:34;97723.94;;;-0.72;70.35
56825;BME280;42705;50.326;18.772;2022-11-20T19:27:55;97719.78;;;-0.75;70.61
56825;BME280;42705;50.326;18.772;2022-11-20T19:33:16;97725.17;;;-0.80;70.91
56825;BME280;42705;50.326;18.772;2022-11-20T19:38:40;97719.28;;;-0.82;70.96
56825;BME280;42705;50.326;18.772;2022-11-20T19:44:05;97736.17;;;-0.85;71.19
56825;BME280;42705;50.326;18.772;2022-11-20T19:49:31;97731.33;;;-0.82;71.33
56825;BME280;42705;50.326;18.772;2022-11-20T19:54:52;97739.69;;;-0.79;71.55
56825;BME280;42705;50.326;18.772;2022-11-20T20:00:15;97732.34;;;-0.78;71.73
56825;BME280;42705;50.326;18.772;2022-11-20T20:05:37;97725.66;;;-0.73;71.79
56825;BME280;42705;50.326;18.772;2022-11-20T20:11:08;97722.72;;;-0.74;71.86
56825;BME280;42705;50.326;18.772;2022-11-20T20:16:35;97718.97;;;-0.76;71.94
56825;BME280;42705;50.326;18.772;2022-11-20T20:21:56;97714.52;;;-0.81;72.15
56825;BME280;42705;50.326;18.772;2022-11-20T20:27:17;97719.39;;;-0.83;72.46
56825;BME280;42705;50.326;18.772;2022-11-20T20:32:40;97726.38;;;-0.78;72.58
56825;BME280;42705;50.326;18.772;2022-11-20T20:38:02;97712.13;;;-0.77;72.76
56825;BME280;42705;50.326;18.772;2022-11-20T20:43:23;97722.09;;;-0.70;72.77
56825;BME280;42705;50.326;18.772;2022-11-20T20:48:44;97714.58;;;-0.66;72.86
56825;BME280;42705;50.326;18.772;2022-11-20T20:54:06;97716.05;;;-0.62;72.90
56825;BME280;42705;50.326;18.772;2022-11-20T20:59:27;97715.33;;;-0.57;73.00
56825;BME280;42705;50.326;18.772;2022-11-20T21:04:48;97717.47;;;-0.49;73.07
56825;BME280;42705;50.326;18.772;2022-11-20T21:10:11;97712.41;;;-0.44;72.96
56825;BME280;42705;50.326;18.772;2022-11-20T21:15:32;97714.36;;;-0.40;73.03
56825;BME280;42705;50.326;18.772;2022-11-20T21:20:55;97732.19;;;-0.37;73.05
56825;BME280;42705;50.326;18.772;2022-11-20T21:26:34;97732.19;;;-0.37;73.05
56825;BME280;42705;50.326;18.772;2022-11-20T21:31:57;97731.83;;;-0.31;73.03
56825;BME280;42705;50.326;18.772;2022-11-20T21:37:18;97747.28;;;-0.23;73.19
56825;BME280;42705;50.326;18.772;2022-11-20T21:42:39;97739.78;;;-0.05;73.09
56825;BME280;42705;50.326;18.772;2022-11-20T21:48:00;97739.78;;;-0.05;73.09
56825;BME280;42705;50.326;18.772;2022-11-20T21:53:21;97737.94;;;0.05;72.90
56825;BME280;42705;50.326;18.772;2022-11-20T21:58:43;97730.87;;;0.08;72.89
56825;BME280;42705;50.326;18.772;2022-11-20T22:04:04;97728.92;;;0.12;72.84
56825;BME280;42705;50.326;18.772;2022-11-20T22:09:27;97730.59;;;0.20;72.80
56825;BME280;42705;50.326;18.772;2022-11-20T22:14:49;97733.06;;;0.22;72.72
56825;BME280;42705;50.326;18.772;2022-11-20T22:20:10;97737.59;;;0.25;72.67
56825;BME280;42705;50.326;18.772;2022-11-20T22:25:33;97746.60;;;0.25;72.74
56825;BME280;42705;50.326;18.772;2022-11-20T22:30:58;97745.77;;;0.39;72.82
56825;BME280;42705;50.326;18.772;2022-11-20T22:36:22;97746.94;;;0.48;72.76
56825;BME280;42705;50.326;18.772;2022-11-20T22:41:45;97751.92;;;0.59;72.51
56825;BME280;42705;50.326;18.772;2022-11-20T22:47:06;97745.11;;;0.57;72.08
56825;BME280;42705;50.326;18.772;2022-11-20T22:52:27;97745.11;;;0.57;72.08
56825;BME280;42705;50.326;18.772;2022-11-20T22:57:48;97740.92;;;0.69;72.02
56825;BME280;42705;50.326;18.772;2022-11-20T23:03:09;97743.22;;;0.74;71.86
56825;BME280;42705;50.326;18.772;2022-11-20T23:08:30;97743.41;;;0.71;71.70
56825;BME280;42705;50.326;18.772;2022-11-20T23:13:53;97743.78;;;0.72;71.85
56825;BME280;42705;50.326;18.772;2022-11-20T23:19:17;97738.80;;;0.76;71.54
56825;BME280;42705;50.326;18.772;2022-11-20T23:24:38;97744.49;;;0.81;71.88
56825;BME280;42705;50.326;18.772;2022-11-20T23:29:59;97729.10;;;0.87;71.72
56825;BME280;42705;50.326;18.772;2022-11-20T23:35:20;97732.50;;;0.95;71.68
56825;BME280;42705;50.326;18.772;2022-11-20T23:40:46;97738.47;;;0.95;71.52
56825;BME280;42705;50.326;18.772;2022-11-20T23:46:08;97748.51;;;1.00;71.30
56825;BME280;42705;50.326;18.772;2022-11-20T23:51:29;97758.63;;;1.03;71.21
56825;BME280;42705;50.326;18.772;2022-11-20T23:56:50;97752.99;;;1.04;70.91
